createdAt,value
2023-04-20T00:06:21.975Z,100.00
2023-04-20T00:13:41.745Z,100.00
2023-04-20T00:20:59.950Z,100.00
2023-04-20T00:28:18.150Z,100.00
2023-04-20T00:35:38.071Z,100.00
2023-04-20T00:42:56.304Z,100.00
2023-04-20T00:50:14.911Z,100.00
2023-04-20T00:57:34.527Z,100.00
2023-04-20T01:04:52.844Z,100.00
2023-04-20T01:12:11.523Z,100.00
2023-04-20T01:19:31.342Z,100.00
2023-04-20T01:26:51.183Z,100.00
2023-04-20T01:34:09.448Z,100.00
2023-04-20T01:41:27.633Z,100.00
2023-04-20T01:48:49.509Z,100.00
2023-04-20T01:56:08.016Z,100.00
2023-04-20T02:03:26.562Z,100.00
2023-04-20T02:10:47.073Z,100.00
2023-04-20T02:18:05.753Z,100.00
2023-04-20T02:25:24.479Z,100.00
2023-04-20T02:32:44.566Z,100.00
2023-04-20T02:40:02.968Z,100.00
2023-04-20T02:47:21.401Z,100.00
2023-04-20T02:54:42.572Z,100.00
2023-04-20T03:02:03.362Z,100.00
2023-04-20T03:09:22.221Z,100.00
2023-04-20T03:16:50.067Z,100.00
2023-04-20T03:24:08.696Z,100.00
2023-04-20T03:31:28.421Z,100.00
2023-04-20T03:38:50.010Z,100.00
2023-04-20T03:46:08.449Z,100.00
2023-04-20T03:53:29.220Z,100.00
2023-04-20T04:00:49.779Z,100.00
2023-04-20T04:08:08.329Z,100.00
2023-04-20T04:15:29.621Z,100.00
2023-04-20T04:22:57.596Z,100.00
2023-04-20T04:30:48.523Z,100.00
2023-04-20T04:38:08.273Z,100.00
2023-04-20T04:45:28.701Z,100.00
2023-04-20T04:52:47.321Z,100.00
2023-04-20T05:00:09.745Z,100.00
2023-04-20T05:07:28.019Z,100.00
2023-04-20T05:14:48.155Z,100.00
2023-04-20T05:22:07.938Z,100.00
2023-04-20T05:29:26.555Z,100.00
2023-04-20T05:36:44.865Z,100.00
2023-04-20T05:44:04.579Z,100.00
2023-04-20T05:51:23.459Z,100.00
2023-04-20T05:58:42.303Z,100.00
2023-04-20T06:06:02.072Z,100.00
2023-04-20T06:13:20.640Z,100.00
2023-04-20T06:20:39.546Z,100.00
2023-04-20T06:27:59.790Z,100.00
2023-04-20T06:35:18.076Z,100.00
2023-04-20T06:42:36.363Z,100.00
2023-04-20T06:49:56.323Z,100.00
2023-04-20T06:57:14.650Z,100.00
2023-04-20T07:04:33.197Z,100.00
2023-04-20T07:11:52.865Z,100.00
2023-04-20T07:19:11.140Z,100.00
2023-04-20T07:26:29.438Z,100.00
2023-04-20T07:33:49.353Z,100.00
2023-04-20T07:41:10.743Z,100.00
2023-04-20T07:48:29.052Z,100.00
2023-04-20T07:55:50.665Z,100.00
2023-04-20T08:03:09.656Z,100.00
2023-04-20T08:10:28.283Z,100.00
2023-04-20T08:17:48.137Z,100.00
2023-04-20T08:25:07.007Z,100.00
2023-04-20T08:32:27.072Z,100.00
2023-04-20T08:39:47.083Z,100.00
2023-04-20T08:47:05.799Z,100.00
2023-04-20T08:54:24.832Z,100.00
2023-04-20T09:01:45.174Z,100.00
2023-04-20T09:09:05.109Z,100.00
2023-04-20T09:16:23.397Z,100.00
2023-04-20T09:23:43.042Z,100.00
2023-04-20T09:31:01.461Z,100.00
2023-04-20T09:38:27.341Z,100.00
2023-04-20T09:45:47.171Z,100.00
2023-04-20T09:53:05.561Z,100.00
2023-04-20T10:00:24.418Z,100.00
2023-04-20T10:07:44.271Z,100.00
2023-04-20T10:15:02.612Z,100.00
2023-04-20T10:22:30.895Z,95.71
2023-04-20T10:29:50.740Z,82.79
2023-04-20T10:37:10.256Z,81.23
2023-04-20T10:44:28.645Z,91.94
2023-04-20T10:51:51.652Z,89.29
2023-04-20T10:59:11.476Z,84.78
2023-04-20T11:06:30.012Z,87.21
2023-04-20T11:13:49.978Z,80.87
2023-04-20T11:21:08.320Z,71.12
2023-04-20T11:28:30.536Z,72.47
2023-04-20T11:35:50.318Z,69.29
2023-04-20T11:43:08.364Z,66.19
2023-04-20T11:50:26.663Z,65.91
2023-04-20T11:57:46.147Z,65.74
2023-04-20T12:05:04.502Z,64.04
2023-04-20T12:12:23.689Z,62.93
2023-04-20T12:19:43.080Z,61.55
2023-04-20T12:27:01.865Z,60.24
2023-04-20T12:34:20.028Z,63.45
2023-04-20T12:41:39.705Z,59.98
2023-04-20T12:48:57.784Z,66.35
2023-04-20T12:56:16.038Z,68.69
2023-04-20T13:03:35.800Z,70.29
2023-04-20T13:10:54.469Z,70.08
2023-04-20T13:18:13.827Z,66.33
2023-04-20T13:25:34.727Z,62.11
2023-04-20T13:32:53.089Z,63.54
2023-04-20T13:40:11.829Z,65.24
2023-04-20T13:47:31.952Z,71.13
2023-04-20T13:54:50.045Z,66.80
2023-04-20T14:02:08.378Z,69.85
2023-04-20T14:09:28.763Z,67.18
2023-04-20T14:16:47.928Z,71.46
2023-04-20T14:24:06.387Z,68.86
2023-04-20T14:31:26.085Z,68.80
2023-04-20T14:38:44.380Z,67.71
2023-04-20T14:46:02.805Z,67.49
2023-04-20T14:53:23.214Z,67.28
2023-04-20T15:00:41.486Z,68.48
2023-04-20T15:07:59.840Z,67.75
2023-04-20T15:15:19.783Z,66.91
2023-04-20T15:22:38.556Z,69.00
2023-04-20T15:29:58.456Z,71.02
2023-04-20T15:37:18.190Z,71.04
2023-04-20T15:44:36.401Z,71.33
2023-04-20T15:51:54.566Z,74.46
2023-04-20T15:59:14.231Z,73.43
2023-04-20T16:06:32.913Z,73.09
2023-04-20T16:13:51.151Z,72.95
2023-04-20T16:21:10.684Z,74.58
2023-04-20T16:28:29.176Z,74.30
2023-04-20T16:35:47.484Z,76.85
2023-04-20T16:43:07.182Z,77.08
2023-04-20T16:50:25.349Z,76.33
2023-04-20T16:57:43.543Z,79.35
2023-04-20T17:05:03.912Z,80.55
2023-04-20T17:12:22.176Z,81.57
2023-04-20T17:19:40.958Z,85.62
2023-04-20T17:27:01.683Z,86.71
2023-04-20T17:34:20.206Z,88.28
2023-04-20T17:41:38.802Z,91.92
2023-04-20T17:48:58.445Z,93.99
2023-04-20T17:56:17.309Z,99.60
2023-04-20T18:03:35.926Z,100.00
2023-04-20T18:10:55.765Z,100.00
2023-04-20T18:18:14.142Z,100.00
2023-04-20T18:25:32.587Z,100.00
2023-04-20T18:32:52.493Z,100.00
2023-04-20T18:40:12.208Z,100.00
2023-04-20T18:47:32.189Z,100.00
2023-04-20T18:54:55.558Z,100.00
2023-04-20T19:02:14.269Z,100.00
2023-04-20T19:09:32.901Z,100.00
2023-04-20T19:16:52.838Z,100.00
2023-04-20T19:24:11.526Z,100.00
2023-04-20T19:31:36.825Z,100.00
2023-04-20T19:38:56.704Z,100.00
2023-04-20T19:46:16.951Z,100.00
2023-04-20T19:53:36.986Z,100.00
2023-04-20T20:00:57.116Z,100.00
2023-04-20T20:08:16.828Z,100.00
2023-04-20T20:15:35.373Z,100.00
2023-04-20T20:22:55.252Z,100.00
2023-04-20T20:30:14.877Z,100.00
2023-04-20T20:37:37.459Z,100.00
2023-04-20T20:44:59.262Z,100.00
2023-04-20T20:52:18.014Z,100.00
2023-04-20T20:59:36.608Z,100.00
2023-04-20T21:06:56.605Z,100.00
2023-04-20T21:14:15.216Z,100.00
2023-04-20T21:21:33.779Z,100.00
2023-04-20T21:28:53.647Z,100.00
2023-04-20T21:36:11.976Z,100.00
2023-04-20T21:43:30.404Z,100.00
2023-04-20T21:50:50.449Z,100.00
2023-04-20T21:58:08.859Z,100.00
2023-04-20T22:05:28.048Z,100.00
2023-04-20T22:12:48.238Z,100.00
2023-04-20T22:20:08.861Z,100.00
2023-04-20T22:27:27.174Z,100.00
2023-04-20T22:34:47.171Z,100.00
2023-04-20T22:42:05.675Z,100.00
2023-04-20T22:49:24.609Z,100.00
2023-04-20T22:56:44.378Z,100.00
2023-04-20T23:04:03.777Z,100.00
2023-04-20T23:11:22.414Z,100.00
2023-04-20T23:18:42.064Z,100.00
2023-04-20T23:26:00.396Z,100.00
2023-04-20T23:33:19.854Z,100.00
2023-04-20T23:40:39.840Z,100.00
2023-04-20T23:47:58.168Z,100.00
2023-04-20T23:55:16.393Z,100.00
